createdAt,value
2022-11-10T00:00:15.389Z,100576.00
2022-11-10T00:03:15.691Z,100576.78
2022-11-10T00:06:06.919Z,100570.44
2022-11-10T00:08:53.348Z,100571.41
2022-11-10T00:11:39.457Z,100572.88
2022-11-10T00:14:43.848Z,100572.00
2022-11-10T00:17:30.084Z,100577.97
2022-11-10T00:20:16.508Z,100570.94
2022-11-10T00:23:02.382Z,100570.50
2022-11-10T00:25:48.499Z,100573.88
2022-11-10T00:28:34.512Z,100570.75
2022-11-10T00:31:21.437Z,100566.84
2022-11-10T00:34:11.188Z,100571.44
2022-11-10T00:36:57.491Z,100570.22
2022-11-10T00:39:43.450Z,100557.56
2022-11-10T00:42:30.002Z,100561.34
2022-11-10T00:45:16.086Z,100566.75
2022-11-10T00:48:02.316Z,100555.97
2022-11-10T00:50:48.176Z,100558.31
2022-11-10T00:53:34.407Z,100559.91
2022-11-10T00:56:21.985Z,100561.91
2022-11-10T00:59:08.248Z,100554.25
2022-11-10T01:01:53.895Z,100559.31
2022-11-10T01:04:40.092Z,100564.00
2022-11-10T01:07:26.002Z,100557.03
2022-11-10T01:10:12.923Z,100550.13
2022-11-10T01:12:59.302Z,100549.41
2022-11-10T01:15:45.470Z,100547.50
2022-11-10T01:18:31.681Z,100554.00
2022-11-10T01:21:20.446Z,100549.41
2022-11-10T01:24:06.759Z,100539.44
2022-11-10T01:26:53.026Z,100554.78
2022-11-10T01:29:39.401Z,100556.34
2022-11-10T01:32:25.510Z,100555.50
2022-11-10T01:35:11.977Z,100552.34
2022-11-10T01:37:58.863Z,100556.19
2022-11-10T01:40:45.869Z,100551.47
2022-11-10T01:43:33.240Z,100555.28
2022-11-10T01:46:19.479Z,100553.28
2022-11-10T01:49:06.838Z,100559.38
2022-11-10T01:52:11.154Z,100555.78
2022-11-10T01:54:57.627Z,100554.25
2022-11-10T01:57:44.421Z,100553.78
2022-11-10T02:00:31.000Z,100553.34
2022-11-10T02:03:20.759Z,100547.97
2022-11-10T02:06:08.825Z,100556.72
2022-11-10T02:08:55.964Z,100549.78
2022-11-10T02:11:44.024Z,100549.78
2022-11-10T02:14:30.405Z,100555.19
2022-11-10T02:17:17.422Z,100557.09
2022-11-10T02:20:11.932Z,100549.03
2022-11-10T02:22:58.110Z,100554.03
2022-11-10T02:25:44.228Z,100557.09
2022-11-10T02:28:35.829Z,100557.09
2022-11-10T02:31:21.924Z,100552.50
2022-11-10T02:34:08.317Z,100559.78
2022-11-10T02:36:54.434Z,100557.88
2022-11-10T02:39:40.696Z,100559.78
2022-11-10T02:42:27.020Z,100550.13
2022-11-10T02:45:13.338Z,100558.56
2022-11-10T02:47:59.136Z,100556.19
2022-11-10T02:50:45.923Z,100563.94
2022-11-10T02:53:32.145Z,100568.53
2022-11-10T02:56:18.344Z,100574.69
2022-11-10T02:59:05.097Z,100570.78
2022-11-10T03:01:51.455Z,100568.78
2022-11-10T03:04:37.709Z,100568.44
2022-11-10T03:07:24.347Z,100571.81
2022-11-10T03:10:10.620Z,100579.13
2022-11-10T03:13:01.892Z,100571.38
2022-11-10T03:15:48.755Z,100585.94
2022-11-10T03:18:35.021Z,100584.38
2022-11-10T03:21:21.226Z,100592.44
2022-11-10T03:24:08.026Z,100603.19
2022-11-10T03:26:53.984Z,100601.66
2022-11-10T03:29:40.743Z,100606.25
2022-11-10T03:32:26.462Z,100600.41
2022-11-10T03:35:12.932Z,100599.66
2022-11-10T03:37:58.569Z,100606.50
2022-11-10T03:41:17.027Z,100617.13
2022-11-10T03:43:51.884Z,100607.38
2022-11-10T03:46:40.580Z,100624.97
2022-11-10T03:49:29.854Z,100625.22
2022-11-10T03:52:16.802Z,100629.72
2022-11-10T03:55:03.736Z,100628.38
2022-11-10T03:57:50.140Z,100632.44
2022-11-10T04:00:36.119Z,100635.78
2022-11-10T04:03:23.929Z,100640.59
2022-11-10T04:06:30.684Z,100636.56
2022-11-10T04:09:17.162Z,100638.72
2022-11-10T04:12:24.849Z,100643.19
2022-11-10T04:15:31.574Z,100650.69
2022-11-10T04:18:26.869Z,100646.66
2022-11-10T04:21:13.106Z,100638.81
2022-11-10T04:23:59.113Z,100631.78
2022-11-10T04:26:47.547Z,100642.28
2022-11-10T04:29:34.306Z,100632.19
2022-11-10T04:32:20.403Z,100638.56
2022-11-10T04:35:06.567Z,100641.59
2022-11-10T04:37:52.793Z,100641.94
2022-11-10T04:40:38.779Z,100644.28
2022-11-10T04:43:25.613Z,100632.19
2022-11-10T04:46:22.242Z,100634.69
2022-11-10T04:49:08.711Z,100634.47
2022-11-10T04:51:54.708Z,100638.03
2022-11-10T04:54:41.435Z,100636.72
2022-11-10T04:57:27.505Z,100633.31
2022-11-10T05:00:14.812Z,100637.69
2022-11-10T05:03:04.545Z,100643.50
2022-11-10T05:05:51.012Z,100658.19
2022-11-10T05:08:39.172Z,100646.31
2022-11-10T05:11:25.976Z,100655.97
2022-11-10T05:14:12.043Z,100657.41
2022-11-10T05:16:58.307Z,100657.75
2022-11-10T05:19:44.577Z,100664.25
2022-11-10T05:22:30.700Z,100660.78
2022-11-10T05:25:16.864Z,100673.09
2022-11-10T05:28:04.881Z,100675.31
2022-11-10T05:30:50.727Z,100673.41
2022-11-10T05:33:38.049Z,100677.69
2022-11-10T05:36:23.950Z,100681.47
2022-11-10T05:39:10.612Z,100681.94
2022-11-10T05:41:57.370Z,100686.19
2022-11-10T05:44:43.799Z,100693.13
2022-11-10T05:47:29.641Z,100691.22
2022-11-10T05:50:17.644Z,100692.91
2022-11-10T05:53:03.559Z,100698.75
2022-11-10T05:55:50.140Z,100707.25
2022-11-10T05:58:36.603Z,100714.19
2022-11-10T06:01:23.501Z,100722.72
2022-11-10T06:04:09.635Z,100728.09
2022-11-10T06:06:55.877Z,100740.44
2022-11-10T06:09:42.069Z,100733.91
2022-11-10T06:12:31.107Z,100738.50
2022-11-10T06:15:17.193Z,100756.56
2022-11-10T06:18:03.687Z,100756.56
2022-11-10T06:20:49.735Z,100761.94
2022-11-10T06:23:35.986Z,100757.34
2022-11-10T06:26:22.043Z,100765.84
2022-11-10T06:29:08.178Z,100769.63
2022-11-10T06:31:53.960Z,100773.56
2022-11-10T06:34:40.162Z,100785.44
2022-11-10T06:37:26.345Z,100783.44
2022-11-10T06:40:16.670Z,100798.41
2022-11-10T06:43:03.118Z,100800.66
2022-11-10T06:45:49.801Z,100801.31
2022-11-10T06:48:35.541Z,100794.47
2022-11-10T06:51:21.574Z,100810.75
2022-11-10T06:54:07.800Z,100806.25
2022-11-10T06:56:53.919Z,100816.81
2022-11-10T06:59:40.015Z,100820.72
2022-11-10T07:02:26.245Z,100820.50
2022-11-10T07:05:12.539Z,100818.28
2022-11-10T07:08:06.522Z,100826.16
2022-11-10T07:10:55.472Z,100830.84
2022-11-10T07:13:43.143Z,100822.09
2022-11-10T07:16:29.648Z,100829.63
2022-11-10T07:19:15.969Z,100832.09
2022-11-10T07:22:06.642Z,100830.13
2022-11-10T07:24:55.939Z,100837.28
2022-11-10T07:27:42.057Z,100844.47
2022-11-10T07:30:30.433Z,100836.59
2022-11-10T07:33:16.612Z,100848.41
2022-11-10T07:36:04.624Z,100850.84
2022-11-10T07:38:50.776Z,100843.78
2022-11-10T07:41:37.004Z,100855.56
2022-11-10T07:44:22.800Z,100863.81
2022-11-10T07:47:08.938Z,100866.91
2022-11-10T07:49:55.135Z,100874.59
2022-11-10T07:52:41.210Z,100874.47
2022-11-10T07:55:27.610Z,100870.72
2022-11-10T07:58:18.070Z,100878.31
2022-11-10T08:01:04.219Z,100880.09
2022-11-10T08:03:51.697Z,100868.59
2022-11-10T08:06:38.095Z,100871.72
2022-11-10T08:09:24.773Z,100873.50
2022-11-10T08:12:11.160Z,100876.03
2022-11-10T08:14:57.295Z,100882.41
2022-11-10T08:17:43.114Z,100885.69
2022-11-10T08:20:29.911Z,100894.84
2022-11-10T08:23:17.805Z,100895.53
2022-11-10T08:26:04.470Z,100896.84
2022-11-10T08:28:50.556Z,100909.00
2022-11-10T08:31:38.275Z,100896.09
2022-11-10T08:34:24.354Z,100903.31
2022-11-10T08:37:10.606Z,100898.53
2022-11-10T08:39:56.522Z,100911.56
2022-11-10T08:42:42.867Z,100911.91
2022-11-10T08:45:29.404Z,100908.22
2022-11-10T08:48:19.068Z,100915.88
2022-11-10T08:51:04.923Z,100919.00
2022-11-10T08:53:51.304Z,100925.97
2022-11-10T08:56:37.307Z,100921.47
2022-11-10T08:59:23.654Z,100924.25
2022-11-10T09:02:10.801Z,100916.25
2022-11-10T09:04:57.149Z,100917.50
2022-11-10T09:07:48.005Z,100915.31
2022-11-10T09:10:37.861Z,100922.06
2022-11-10T09:13:29.446Z,100914.91
2022-11-10T09:16:16.931Z,100915.03
2022-11-10T09:19:03.028Z,100926.34
2022-11-10T09:21:49.304Z,100933.41
2022-11-10T09:24:35.308Z,100927.38
2022-11-10T09:27:21.813Z,100939.41
2022-11-10T09:30:11.815Z,100931.50
2022-11-10T09:33:03.613Z,100925.94
2022-11-10T09:35:49.661Z,100928.78
2022-11-10T09:38:36.011Z,100935.16
2022-11-10T09:41:22.227Z,100932.63
2022-11-10T09:44:30.897Z,100933.97
2022-11-10T09:50:46.746Z,100931.00
2022-11-10T09:54:06.234Z,100936.50
2022-11-10T09:56:56.861Z,100940.41
2022-11-10T09:59:44.282Z,100944.69
2022-11-10T10:02:56.207Z,100946.00
2022-11-10T10:05:54.029Z,100944.56
2022-11-10T10:09:24.564Z,100944.03
2022-11-10T10:12:37.517Z,100938.50
2022-11-10T10:15:42.520Z,100950.06
2022-11-10T10:19:13.520Z,100944.50
2022-11-10T10:22:23.652Z,100938.53
2022-11-10T10:25:22.104Z,100948.78
2022-11-10T10:28:27.472Z,100950.84
2022-11-10T10:31:27.395Z,100948.69
2022-11-10T10:34:17.503Z,100955.06
2022-11-10T10:37:03.672Z,100953.66
2022-11-10T10:39:55.228Z,100950.72
2022-11-10T10:42:41.228Z,100960.91
2022-11-10T10:45:29.891Z,100955.66
2022-11-10T10:48:31.031Z,100954.72
2022-11-10T10:51:30.652Z,100951.41
2022-11-10T10:54:29.736Z,100962.56
2022-11-10T10:57:32.195Z,100964.59
2022-11-10T11:00:19.922Z,100969.84
2022-11-10T11:03:25.182Z,100972.97
2022-11-10T11:06:14.934Z,100962.34
2022-11-10T11:09:20.089Z,100970.44
2022-11-10T11:12:25.569Z,100959.72
2022-11-10T11:15:30.602Z,100963.94
2022-11-10T11:18:20.805Z,100965.34
2022-11-10T11:21:13.097Z,100962.50
2022-11-10T11:24:30.414Z,100959.34
2022-11-10T11:27:46.072Z,100967.50
2022-11-10T11:30:53.963Z,100972.00
2022-11-10T11:34:13.895Z,100959.69
2022-11-10T11:37:37.139Z,100970.66
2022-11-10T11:41:08.014Z,100966.47
2022-11-10T11:44:00.759Z,100970.50
2022-11-10T11:47:30.422Z,100983.78
2022-11-10T11:50:43.927Z,100978.03
2022-11-10T11:53:37.110Z,100974.22
2022-11-10T11:56:27.552Z,100971.94
2022-11-10T11:59:56.567Z,100977.84
2022-11-10T12:02:56.212Z,100983.31
2022-11-10T12:06:07.252Z,100981.03
2022-11-10T12:09:39.773Z,100988.41
2022-11-10T12:13:07.211Z,100991.28
2022-11-10T12:16:18.052Z,100995.25
2022-11-10T12:19:23.417Z,100999.97
2022-11-10T12:22:41.573Z,101003.81
2022-11-10T12:25:49.522Z,101000.69
2022-11-10T12:29:05.231Z,101004.97
2022-11-10T12:31:58.837Z,101006.94
2022-11-10T12:34:52.384Z,101005.41
2022-11-10T12:37:53.180Z,101010.88
2022-11-10T12:41:04.976Z,101001.97
2022-11-10T12:45:02.180Z,101009.44
2022-11-10T12:47:49.579Z,101014.09
2022-11-10T12:50:59.862Z,101017.22
2022-11-10T12:53:47.911Z,101028.09
2022-11-10T12:57:07.014Z,101029.25
2022-11-10T13:00:28.071Z,101033.56
2022-11-10T13:03:31.679Z,101035.91
2022-11-10T13:06:40.351Z,101039.03
2022-11-10T13:09:33.911Z,101036.69
2022-11-10T13:12:23.389Z,101038.63
2022-11-10T13:15:37.674Z,101044.88
2022-11-10T13:18:32.608Z,101053.06
2022-11-10T13:21:39.258Z,101052.66
2022-11-10T13:24:29.966Z,101052.28
2022-11-10T13:27:38.024Z,101064.34
2022-11-10T13:30:52.726Z,101065.16
2022-11-10T13:33:39.499Z,101062.44
2022-11-10T13:36:48.003Z,101062.41
2022-11-10T13:39:37.180Z,101067.09
2022-11-10T13:42:25.859Z,101073.72
2022-11-10T13:45:42.266Z,101077.19
2022-11-10T13:49:16.362Z,101081.00
2022-11-10T13:52:20.625Z,101076.63
2022-11-10T13:55:20.814Z,101083.25
2022-11-10T13:58:40.296Z,101084.03
2022-11-10T14:01:30.615Z,101082.88
2022-11-10T14:04:40.619Z,101091.81
2022-11-10T14:07:35.119Z,101094.94
2022-11-10T14:10:45.391Z,101094.91
2022-11-10T14:13:43.872Z,101100.25
2022-11-10T14:16:33.148Z,101107.47
2022-11-10T14:19:45.681Z,101109.56
2022-11-10T14:22:43.160Z,101113.59
2022-11-10T14:25:39.696Z,101118.75
2022-11-10T14:28:34.354Z,101120.88
2022-11-10T14:31:24.314Z,101128.78
2022-11-10T14:34:18.570Z,101138.06
2022-11-10T14:37:05.169Z,101131.47
2022-11-10T14:39:55.659Z,101133.06
2022-11-10T14:42:41.326Z,101132.44
2022-11-10T14:45:28.698Z,101135.34
2022-11-10T14:48:24.876Z,101143.22
2022-11-10T14:51:19.121Z,101149.25
2022-11-10T14:54:07.247Z,101152.53
2022-11-10T14:56:56.304Z,101155.31
2022-11-10T14:59:42.294Z,101151.47
2022-11-10T15:02:29.627Z,101153.09
2022-11-10T15:05:16.480Z,101153.16
2022-11-10T15:08:04.717Z,101150.31
2022-11-10T15:10:58.817Z,101156.34
2022-11-10T15:13:45.005Z,101157.06
2022-11-10T15:16:38.703Z,101166.00
2022-11-10T15:19:30.448Z,101161.09
2022-11-10T15:22:35.099Z,101175.25
2022-11-10T15:25:32.847Z,101172.72
2022-11-10T15:28:35.373Z,101169.41
2022-11-10T15:31:31.635Z,101183.19
2022-11-10T15:34:45.471Z,101188.41
2022-11-10T15:37:32.244Z,101199.47
2022-11-10T15:40:44.542Z,101190.84
2022-11-10T15:43:30.832Z,101188.06
2022-11-10T15:46:24.459Z,101191.78
2022-11-10T15:49:26.111Z,101203.63
2022-11-10T15:52:17.460Z,101198.06
2022-11-10T15:55:06.716Z,101211.03
2022-11-10T15:57:53.178Z,101211.63
2022-11-10T16:00:39.638Z,101216.16
2022-11-10T16:03:25.787Z,101220.66
2022-11-10T16:06:16.508Z,101217.53
2022-11-10T16:09:02.549Z,101231.38
2022-11-10T16:11:49.306Z,101228.81
2022-11-10T16:14:35.506Z,101230.63
2022-11-10T16:17:22.152Z,101237.16
2022-11-10T16:20:15.083Z,101241.78
2022-11-10T16:23:01.143Z,101250.19
2022-11-10T16:25:51.476Z,101253.91
2022-11-10T16:28:38.030Z,101256.94
2022-11-10T16:31:26.089Z,101255.41
2022-11-10T16:34:14.938Z,101275.41
2022-11-10T16:37:01.336Z,101279.22
2022-11-10T16:39:47.429Z,101285.44
2022-11-10T16:42:33.959Z,101279.94
2022-11-10T16:45:30.149Z,101295.22
2022-11-10T16:48:21.940Z,101303.56
2022-11-10T16:51:08.920Z,101296.59
2022-11-10T16:53:54.736Z,101297.59
2022-11-10T16:56:40.869Z,101310.31
2022-11-10T16:59:27.026Z,101311.56
2022-11-10T17:02:33.722Z,101310.19
2022-11-10T17:05:19.553Z,101316.84
2022-11-10T17:08:06.973Z,101317.97
2022-11-10T17:10:56.781Z,101331.00
2022-11-10T17:13:43.025Z,101329.06
2022-11-10T17:16:34.612Z,101331.53
2022-11-10T17:19:26.480Z,101330.28
2022-11-10T17:22:21.437Z,101333.09
2022-11-10T17:25:25.000Z,101327.78
2022-11-10T17:28:17.751Z,101339.22
2022-11-10T17:31:04.537Z,101347.75
2022-11-10T17:33:50.666Z,101344.59
2022-11-10T17:36:37.257Z,101348.41
2022-11-10T17:39:23.401Z,101347.16
2022-11-10T17:42:15.594Z,101349.06
2022-11-10T17:45:01.223Z,101348.41
2022-11-10T17:47:49.493Z,101353.25
2022-11-10T17:50:38.160Z,101360.00
2022-11-10T17:53:28.378Z,101372.38
2022-11-10T17:56:14.793Z,101362.13
2022-11-10T17:59:01.772Z,101365.34
2022-11-10T18:01:48.172Z,101377.09
2022-11-10T18:04:34.480Z,101365.09
2022-11-10T18:07:20.513Z,101372.06
2022-11-10T18:10:13.042Z,101376.78
2022-11-10T18:12:59.990Z,101391.78
2022-11-10T18:15:48.143Z,101393.75
2022-11-10T18:18:34.865Z,101393.47
2022-11-10T18:21:21.778Z,101391.09
2022-11-10T18:24:08.606Z,101405.56
2022-11-10T18:26:54.965Z,101407.50
2022-11-10T18:29:41.053Z,101413.69
2022-11-10T18:32:27.904Z,101416.56
2022-11-10T18:35:14.929Z,101423.13
2022-11-10T18:38:01.538Z,101428.69
2022-11-10T18:40:48.797Z,101432.97
2022-11-10T18:43:35.120Z,101431.91
2022-11-10T18:46:21.351Z,101448.75
2022-11-10T18:49:07.884Z,101462.22
2022-11-10T18:51:53.864Z,101463.97
2022-11-10T18:54:40.192Z,101463.47
2022-11-10T18:57:26.957Z,101454.78
2022-11-10T19:00:14.869Z,101468.53
2022-11-10T19:03:00.757Z,101461.56
2022-11-10T19:05:55.660Z,101456.34
2022-11-10T19:08:45.120Z,101462.84
2022-11-10T19:11:34.064Z,101468.69
2022-11-10T19:14:20.360Z,101471.06
2022-11-10T19:17:07.115Z,101466.44
2022-11-10T19:19:56.422Z,101469.78
2022-11-10T19:22:43.609Z,101487.97
2022-11-10T19:25:29.774Z,101496.03
2022-11-10T19:28:16.481Z,101492.41
2022-11-10T19:31:14.781Z,101489.72
2022-11-10T19:34:01.153Z,101499.84
2022-11-10T19:36:49.141Z,101496.19
2022-11-10T19:39:35.271Z,101512.50
2022-11-10T19:42:21.324Z,101519.94
2022-11-10T19:45:09.455Z,101518.38
2022-11-10T19:47:57.271Z,101521.38
2022-11-10T19:50:49.144Z,101524.06
2022-11-10T19:53:35.874Z,101530.38
2022-11-10T19:56:26.241Z,101534.03
2022-11-10T19:59:15.406Z,101543.50
2022-11-10T20:02:01.802Z,101546.03
2022-11-10T20:05:07.357Z,101552.06
2022-11-10T20:08:11.915Z,101556.78
2022-11-10T20:11:17.162Z,101567.72
2022-11-10T20:14:05.621Z,101568.53
2022-11-10T20:16:52.515Z,101566.31
2022-11-10T20:23:12.229Z,101578.66
2022-11-10T20:26:14.313Z,101579.63
2022-11-10T20:29:00.520Z,101575.19
2022-11-10T20:31:46.683Z,101574.25
2022-11-10T20:34:32.739Z,101584.53
2022-11-10T20:37:19.595Z,101589.44
2022-11-10T20:40:30.352Z,101587.22
2022-11-10T20:43:18.591Z,101587.38
2022-11-10T20:46:06.730Z,101587.72
2022-11-10T20:48:53.340Z,101595.78
2022-11-10T20:51:40.300Z,101598.00
2022-11-10T20:54:27.765Z,101599.75
2022-11-10T20:57:13.578Z,101598.31
2022-11-10T21:00:00.523Z,101598.50
2022-11-10T21:02:47.618Z,101599.28
2022-11-10T21:06:11.408Z,101595.16
2022-11-10T21:09:24.781Z,101596.91
2022-11-10T21:12:44.212Z,101591.84
2022-11-10T21:15:55.477Z,101593.91
2022-11-10T21:19:06.123Z,101604.03
2022-11-10T21:22:02.741Z,101605.75
2022-11-10T21:25:53.669Z,101602.75
2022-11-10T21:28:40.640Z,101608.94
2022-11-10T21:31:27.720Z,101608.75
2022-11-10T21:34:39.178Z,101609.59
2022-11-10T21:37:25.912Z,101622.88
2022-11-10T21:40:14.473Z,101619.38
2022-11-10T21:43:01.972Z,101627.78
2022-11-10T21:46:25.155Z,101629.69
2022-11-10T21:53:33.247Z,101632.53
2022-11-10T22:00:35.071Z,101635.06
2022-11-10T22:03:38.540Z,101632.38
2022-11-10T22:06:54.284Z,101623.38
2022-11-10T22:10:15.216Z,101631.91
2022-11-10T22:13:56.176Z,101624.16
2022-11-10T22:17:48.019Z,101630.31
2022-11-10T22:20:54.349Z,101639.66
2022-11-10T22:28:14.001Z,101657.22
2022-11-10T22:31:11.777Z,101655.19
2022-11-10T22:34:08.154Z,101657.69
2022-11-10T22:37:13.483Z,101652.00
2022-11-10T22:40:45.918Z,101648.06
2022-11-10T22:44:04.919Z,101644.41
2022-11-10T22:48:34.625Z,101643.28
2022-11-10T22:51:37.730Z,101637.75
2022-11-10T22:54:52.774Z,101646.47
2022-11-10T22:57:39.854Z,101653.44
2022-11-10T23:00:26.620Z,101652.63
2022-11-10T23:03:14.232Z,101645.22
2022-11-10T23:06:15.280Z,101634.91
2022-11-10T23:09:13.426Z,101638.69
2022-11-10T23:12:14.699Z,101640.59
2022-11-10T23:15:22.091Z,101653.13
2022-11-10T23:18:58.310Z,101651.84
2022-11-10T23:21:48.045Z,101639.66
2022-11-10T23:24:43.153Z,101636.50
2022-11-10T23:27:39.803Z,101642.50
2022-11-10T23:31:26.989Z,101639.75
2022-11-10T23:34:26.293Z,101642.44
2022-11-10T23:37:20.608Z,101627.44
2022-11-10T23:40:15.936Z,101627.28
2022-11-10T23:43:11.260Z,101632.66
2022-11-10T23:46:08.096Z,101630.59
2022-11-10T23:48:54.634Z,101632.38
2022-11-10T23:51:40.996Z,101626.16
2022-11-10T23:54:26.984Z,101632.34
2022-11-10T23:57:13.123Z,101638.81
2022-11-10T23:59:59.356Z,101646.75
